Terminal Aerodrome Forecast
Issued by NWS

Current Version | Previous Version | Text Only | Print | Product List | Glossary Off
Versions: 1 2 3 4 5 6 7 8 9 10 11 12 13 14

591
FTUS41 KILN 072343
TAFLCK
TAF
KLCK 072343Z 0800/0824 20007KT P6SM BKN150
     FM080600 20006KT P6SM BKN050 OVC120
     FM080800 22005KT P6SM -SHRA BKN025 OVC080
     FM081100 25005KT 5SM BR OVC015
     FM081600 26006KT P6SM BKN035 OVC100
     FM082100 27008KT P6SM -SHRA BKN025 OVC040=

USA.gov is the U.S. government's official web portal to all federal, state and local government web resources and services.